sensor_id;sensor_type;location;lat;lon;timestamp;temperature;humidity
34776;DHT22;20989;52.566;13.346;2023-02-28T00:00:56;20.70;43.60
34776;DHT22;20989;52.566;13.346;2023-02-28T00:03:57;20.70;43.70
34776;DHT22;20989;52.566;13.346;2023-02-28T00:06:57;20.80;43.70
34776;DHT22;20989;52.566;13.346;2023-02-28T00:09:58;20.80;43.80
34776;DHT22;20989;52.566;13.346;2023-02-28T00:13:02;20.80;43.80
34776;DHT22;20989;52.566;13.346;2023-02-28T00:16:11;20.80;43.70
34776;DHT22;20989;52.566;13.346;2023-02-28T00:19:14;20.80;43.80
34776;DHT22;20989;52.566;13.346;2023-02-28T00:22:16;20.80;43.80
34776;DHT22;20989;52.566;13.346;2023-02-28T00:25:20;20.80;43.70
34776;DHT22;20989;52.566;13.346;2023-02-28T00:28:21;20.80;43.80
34776;DHT22;20989;52.566;13.346;2023-02-28T00:31:22;20.80;44.20
34776;DHT22;20989;52.566;13.346;2023-02-28T00:34:23;20.80;44.30
34776;DHT22;20989;52.566;13.346;2023-02-28T00:37:23;20.70;43.70
34776;DHT22;20989;52.566;13.346;2023-02-28T00:40:24;20.80;43.80
34776;DHT22;20989;52.566;13.346;2023-02-28T00:43:24;20.70;43.70
34776;DHT22;20989;52.566;13.346;2023-02-28T00:46:25;20.70;43.70
34776;DHT22;20989;52.566;13.346;2023-02-28T00:49:27;20.70;43.70
34776;DHT22;20989;52.566;13.346;2023-02-28T00:52:28;20.70;43.80
34776;DHT22;20989;52.566;13.346;2023-02-28T00:55:29;20.70;43.70
34776;DHT22;20989;52.566;13.346;2023-02-28T00:58:29;20.70;43.80
34776;DHT22;20989;52.566;13.346;2023-02-28T01:01:31;20.70;43.80
34776;DHT22;20989;52.566;13.346;2023-02-28T01:04:31;20.70;43.80
34776;DHT22;20989;52.566;13.346;2023-02-28T01:07:32;20.70;43.80
34776;DHT22;20989;52.566;13.346;2023-02-28T01:10:33;20.80;43.80
34776;DHT22;20989;52.566;13.346;2023-02-28T01:13:34;20.70;43.70
34776;DHT22;20989;52.566;13.346;2023-02-28T01:16:34;20.80;43.80
34776;DHT22;20989;52.566;13.346;2023-02-28T01:19:35;20.70;43.70
34776;DHT22;20989;52.566;13.346;2023-02-28T01:22:36;20.80;43.80
34776;DHT22;20989;52.566;13.346;2023-02-28T01:25:37;20.80;43.70
34776;DHT22;20989;52.566;13.346;2023-02-28T01:28:37;20.80;43.70
34776;DHT22;20989;52.566;13.346;2023-02-28T01:31:38;20.80;43.70
34776;DHT22;20989;52.566;13.346;2023-02-28T01:34:39;20.80;43.70
34776;DHT22;20989;52.566;13.346;2023-02-28T01:37:39;20.80;43.70
34776;DHT22;20989;52.566;13.346;2023-02-28T01:40:40;20.80;43.70
34776;DHT22;20989;52.566;13.346;2023-02-28T01:46:44;20.80;43.70
34776;DHT22;20989;52.566;13.346;2023-02-28T01:49:45;20.80;43.70
34776;DHT22;20989;52.566;13.346;2023-02-28T01:52:47;20.80;43.70
34776;DHT22;20989;52.566;13.346;2023-02-28T01:55:50;20.70;43.70
34776;DHT22;20989;52.566;13.346;2023-02-28T01:58:53;20.80;43.70
34776;DHT22;20989;52.566;13.346;2023-02-28T02:01:54;20.80;43.70
34776;DHT22;20989;52.566;13.346;2023-02-28T02:08:13;20.70;43.70
34776;DHT22;20989;52.566;13.346;2023-02-28T02:11:18;20.80;43.70
34776;DHT22;20989;52.566;13.346;2023-02-28T02:17:44;20.80;43.70
34776;DHT22;20989;52.566;13.346;2023-02-28T02:27:25;20.70;43.70
34776;DHT22;20989;52.566;13.346;2023-02-28T02:44:18;20.70;43.80
34776;DHT22;20989;52.566;13.346;2023-02-28T02:47:22;20.70;43.80
34776;DHT22;20989;52.566;13.346;2023-02-28T02:50:31;20.70;43.80
34776;DHT22;20989;52.566;13.346;2023-02-28T02:57:11;20.70;43.80
34776;DHT22;20989;52.566;13.346;2023-02-28T03:00:16;20.70;43.80
34776;DHT22;20989;52.566;13.346;2023-02-28T03:03:18;20.70;43.80
34776;DHT22;20989;52.566;13.346;2023-02-28T03:06:21;20.70;43.80
34776;DHT22;20989;52.566;13.346;2023-02-28T03:09:25;20.70;44.30
34776;DHT22;20989;52.566;13.346;2023-02-28T03:12:41;20.70;43.80
34776;DHT22;20989;52.566;13.346;2023-02-28T03:16:05;20.70;43.80
34776;DHT22;20989;52.566;13.346;2023-02-28T03:26:02;20.70;43.70
34776;DHT22;20989;52.566;13.346;2023-02-28T03:29:09;20.80;43.70
34776;DHT22;20989;52.566;13.346;2023-02-28T03:35:24;20.80;44.10
34776;DHT22;20989;52.566;13.346;2023-02-28T03:38:33;20.80;43.50
34776;DHT22;20989;52.566;13.346;2023-02-28T03:41:38;20.80;43.50
34776;DHT22;20989;52.566;13.346;2023-02-28T03:44:57;20.80;43.50
34776;DHT22;20989;52.566;13.346;2023-02-28T03:48:17;20.90;43.50
34776;DHT22;20989;52.566;13.346;2023-02-28T03:51:22;20.80;43.50
34776;DHT22;20989;52.566;13.346;2023-02-28T03:54:27;20.80;43.40
34776;DHT22;20989;52.566;13.346;2023-02-28T03:58:01;20.90;43.50
34776;DHT22;20989;52.566;13.346;2023-02-28T04:01:19;20.80;43.50
34776;DHT22;20989;52.566;13.346;2023-02-28T04:04:21;20.90;43.50
34776;DHT22;20989;52.566;13.346;2023-02-28T04:07:22;20.90;43.50
34776;DHT22;20989;52.566;13.346;2023-02-28T04:10:23;20.80;43.50
34776;DHT22;20989;52.566;13.346;2023-02-28T04:13:25;20.90;44.00
34776;DHT22;20989;52.566;13.346;2023-02-28T04:16:25;20.90;43.50
34776;DHT22;20989;52.566;13.346;2023-02-28T04:19:27;20.80;43.50
34776;DHT22;20989;52.566;13.346;2023-02-28T04:22:27;20.80;43.50
34776;DHT22;20989;52.566;13.346;2023-02-28T04:25:28;20.80;43.60
34776;DHT22;20989;52.566;13.346;2023-02-28T04:28:28;20.80;43.60
34776;DHT22;20989;52.566;13.346;2023-02-28T04:31:29;20.80;43.60
34776;DHT22;20989;52.566;13.346;2023-02-28T04:34:31;20.70;44.10
34776;DHT22;20989;52.566;13.346;2023-02-28T04:37:32;20.80;43.60
34776;DHT22;20989;52.566;13.346;2023-02-28T04:40:35;20.80;43.70
34776;DHT22;20989;52.566;13.346;2023-02-28T04:43:36;20.80;43.70
34776;DHT22;20989;52.566;13.346;2023-02-28T04:46:37;20.80;43.90
34776;DHT22;20989;52.566;13.346;2023-02-28T04:49:37;20.80;43.60
34776;DHT22;20989;52.566;13.346;2023-02-28T04:52:38;20.70;43.50
34776;DHT22;20989;52.566;13.346;2023-02-28T04:55:39;20.80;43.70
34776;DHT22;20989;52.566;13.346;2023-02-28T04:58:41;20.80;43.70
34776;DHT22;20989;52.566;13.346;2023-02-28T05:01:46;20.70;44.10
34776;DHT22;20989;52.566;13.346;2023-02-28T05:04:47;20.70;43.70
34776;DHT22;20989;52.566;13.346;2023-02-28T05:07:48;20.80;43.70
34776;DHT22;20989;52.566;13.346;2023-02-28T05:10:49;20.70;43.70
34776;DHT22;20989;52.566;13.346;2023-02-28T05:13:50;20.80;43.60
34776;DHT22;20989;52.566;13.346;2023-02-28T05:16:51;20.80;43.50
34776;DHT22;20989;52.566;13.346;2023-02-28T05:19:52;20.80;43.30
34776;DHT22;20989;52.566;13.346;2023-02-28T05:22:53;20.90;43.30
34776;DHT22;20989;52.566;13.346;2023-02-28T05:25:54;20.90;43.10
34776;DHT22;20989;52.566;13.346;2023-02-28T05:28:55;21.00;43.10
34776;DHT22;20989;52.566;13.346;2023-02-28T05:31:55;21.00;43.00
34776;DHT22;20989;52.566;13.346;2023-02-28T05:34:56;21.00;42.90
34776;DHT22;20989;52.566;13.346;2023-02-28T05:37:57;21.10;42.80
34776;DHT22;20989;52.566;13.346;2023-02-28T05:40:57;21.00;42.70
34776;DHT22;20989;52.566;13.346;2023-02-28T05:43:58;21.00;42.80
34776;DHT22;20989;52.566;13.346;2023-02-28T05:47:00;21.10;42.80
34776;DHT22;20989;52.566;13.346;2023-02-28T05:50:01;21.10;42.70
34776;DHT22;20989;52.566;13.346;2023-02-28T05:53:02;21.10;42.70
34776;DHT22;20989;52.566;13.346;2023-02-28T05:56:03;21.10;42.70
34776;DHT22;20989;52.566;13.346;2023-02-28T05:59:04;21.10;42.70
34776;DHT22;20989;52.566;13.346;2023-02-28T06:02:05;21.10;42.70
34776;DHT22;20989;52.566;13.346;2023-02-28T06:05:09;21.10;42.70
34776;DHT22;20989;52.566;13.346;2023-02-28T06:08:13;21.10;42.70
34776;DHT22;20989;52.566;13.346;2023-02-28T06:11:13;21.10;42.70
34776;DHT22;20989;52.566;13.346;2023-02-28T06:14:16;21.10;42.70
34776;DHT22;20989;52.566;13.346;2023-02-28T06:17:17;21.10;42.80
34776;DHT22;20989;52.566;13.346;2023-02-28T06:20:18;21.10;42.70
34776;DHT22;20989;52.566;13.346;2023-02-28T06:23:19;21.00;43.40
34776;DHT22;20989;52.566;13.346;2023-02-28T06:26:20;21.00;42.70
34776;DHT22;20989;52.566;13.346;2023-02-28T06:29:20;21.10;42.50
34776;DHT22;20989;52.566;13.346;2023-02-28T06:32:21;21.20;42.50
34776;DHT22;20989;52.566;13.346;2023-02-28T06:35:22;21.20;42.60
34776;DHT22;20989;52.566;13.346;2023-02-28T06:38:23;21.20;42.60
34776;DHT22;20989;52.566;13.346;2023-02-28T06:41:24;21.20;42.60
34776;DHT22;20989;52.566;13.346;2023-02-28T06:44:25;21.20;42.60
34776;DHT22;20989;52.566;13.346;2023-02-28T06:47:26;21.30;42.70
34776;DHT22;20989;52.566;13.346;2023-02-28T06:50:27;21.30;43.10
34776;DHT22;20989;52.566;13.346;2023-02-28T06:53:29;21.30;42.80
34776;DHT22;20989;52.566;13.346;2023-02-28T06:56:30;21.30;42.70
34776;DHT22;20989;52.566;13.346;2023-02-28T06:59:31;21.30;42.70
34776;DHT22;20989;52.566;13.346;2023-02-28T07:02:32;21.30;42.70
34776;DHT22;20989;52.566;13.346;2023-02-28T07:05:35;21.30;42.70
34776;DHT22;20989;52.566;13.346;2023-02-28T07:08:37;21.30;42.80
34776;DHT22;20989;52.566;13.346;2023-02-28T07:11:38;21.30;42.70
34776;DHT22;20989;52.566;13.346;2023-02-28T07:14:39;21.30;42.70
34776;DHT22;20989;52.566;13.346;2023-02-28T07:17:39;21.30;42.80
34776;DHT22;20989;52.566;13.346;2023-02-28T07:20:40;21.30;42.80
34776;DHT22;20989;52.566;13.346;2023-02-28T07:23:41;21.30;42.90
34776;DHT22;20989;52.566;13.346;2023-02-28T07:26:42;21.30;42.90
34776;DHT22;20989;52.566;13.346;2023-02-28T07:29:42;21.30;43.00
34776;DHT22;20989;52.566;13.346;2023-02-28T07:32:43;21.30;43.00
34776;DHT22;20989;52.566;13.346;2023-02-28T07:35:44;21.30;42.90
34776;DHT22;20989;52.566;13.346;2023-02-28T07:38:46;21.30;42.90
34776;DHT22;20989;52.566;13.346;2023-02-28T07:41:48;21.30;43.00
34776;DHT22;20989;52.566;13.346;2023-02-28T07:44:49;21.30;43.10
34776;DHT22;20989;52.566;13.346;2023-02-28T07:47:51;21.30;43.00
34776;DHT22;20989;52.566;13.346;2023-02-28T07:50:56;21.30;43.10
34776;DHT22;20989;52.566;13.346;2023-02-28T07:53:58;21.30;43.10
34776;DHT22;20989;52.566;13.346;2023-02-28T07:56:59;21.30;43.20
34776;DHT22;20989;52.566;13.346;2023-02-28T07:59:59;21.20;43.20
34776;DHT22;20989;52.566;13.346;2023-02-28T08:03:00;21.20;43.40
34776;DHT22;20989;52.566;13.346;2023-02-28T08:06:02;21.20;43.20
34776;DHT22;20989;52.566;13.346;2023-02-28T08:09:03;21.20;43.40
34776;DHT22;20989;52.566;13.346;2023-02-28T08:12:04;21.20;43.20
34776;DHT22;20989;52.566;13.346;2023-02-28T08:15:05;21.20;43.20
34776;DHT22;20989;52.566;13.346;2023-02-28T08:18:06;21.30;43.30
34776;DHT22;20989;52.566;13.346;2023-02-28T08:21:08;21.30;43.30
34776;DHT22;20989;52.566;13.346;2023-02-28T08:24:09;21.20;43.20
34776;DHT22;20989;52.566;13.346;2023-02-28T08:27:10;21.30;43.20
34776;DHT22;20989;52.566;13.346;2023-02-28T08:30:12;21.30;43.20
34776;DHT22;20989;52.566;13.346;2023-02-28T08:33:12;21.30;43.40
34776;DHT22;20989;52.566;13.346;2023-02-28T08:36:13;21.30;43.30
34776;DHT22;20989;52.566;13.346;2023-02-28T08:39:15;21.30;43.30
34776;DHT22;20989;52.566;13.346;2023-02-28T08:42:16;21.30;43.50
34776;DHT22;20989;52.566;13.346;2023-02-28T08:45:16;21.30;43.40
34776;DHT22;20989;52.566;13.346;2023-02-28T08:48:17;21.20;43.60
34776;DHT22;20989;52.566;13.346;2023-02-28T08:51:18;21.30;43.40
34776;DHT22;20989;52.566;13.346;2023-02-28T08:54:22;21.30;43.50
34776;DHT22;20989;52.566;13.346;2023-02-28T08:57:24;21.30;43.50
34776;DHT22;20989;52.566;13.346;2023-02-28T09:00:26;21.10;40.50
34776;DHT22;20989;52.566;13.346;2023-02-28T09:03:27;20.80;35.10
34776;DHT22;20989;52.566;13.346;2023-02-28T09:06:28;20.60;31.60
34776;DHT22;20989;52.566;13.346;2023-02-28T09:09:28;20.50;31.70
34776;DHT22;20989;52.566;13.346;2023-02-28T09:12:33;20.70;36.40
34776;DHT22;20989;52.566;13.346;2023-02-28T09:15:37;20.80;37.20
34776;DHT22;20989;52.566;13.346;2023-02-28T09:18:38;20.90;37.80
34776;DHT22;20989;52.566;13.346;2023-02-28T09:21:39;21.00;37.90
34776;DHT22;20989;52.566;13.346;2023-02-28T09:24:40;21.00;37.50
34776;DHT22;20989;52.566;13.346;2023-02-28T09:27:40;21.10;38.10
34776;DHT22;20989;52.566;13.346;2023-02-28T09:30:42;21.10;38.30
34776;DHT22;20989;52.566;13.346;2023-02-28T09:33:42;21.10;38.50
34776;DHT22;20989;52.566;13.346;2023-02-28T09:36:43;21.20;38.10
34776;DHT22;20989;52.566;13.346;2023-02-28T09:39:44;21.20;38.40
34776;DHT22;20989;52.566;13.346;2023-02-28T09:42:49;21.20;38.60
34776;DHT22;20989;52.566;13.346;2023-02-28T09:46:04;21.20;38.70
34776;DHT22;20989;52.566;13.346;2023-02-28T09:49:11;21.20;39.00
34776;DHT22;20989;52.566;13.346;2023-02-28T09:52:30;21.30;39.20
34776;DHT22;20989;52.566;13.346;2023-02-28T09:55:42;21.30;40.40
34776;DHT22;20989;52.566;13.346;2023-02-28T10:03:04;21.20;39.60
34776;DHT22;20989;52.566;13.346;2023-02-28T10:05:58;21.30;39.80
34776;DHT22;20989;52.566;13.346;2023-02-28T10:09:11;21.20;40.50
34776;DHT22;20989;52.566;13.346;2023-02-28T10:12:15;21.10;40.70
34776;DHT22;20989;52.566;13.346;2023-02-28T10:15:16;21.10;40.80
34776;DHT22;20989;52.566;13.346;2023-02-28T10:18:23;21.00;40.80
34776;DHT22;20989;52.566;13.346;2023-02-28T10:25:00;21.00;40.90
34776;DHT22;20989;52.566;13.346;2023-02-28T10:28:11;21.00;40.80
34776;DHT22;20989;52.566;13.346;2023-02-28T10:31:18;21.00;40.90
34776;DHT22;20989;52.566;13.346;2023-02-28T10:34:18;20.90;41.20
34776;DHT22;20989;52.566;13.346;2023-02-28T10:37:19;20.90;41.40
34776;DHT22;20989;52.566;13.346;2023-02-28T10:43:23;20.80;41.20
34776;DHT22;20989;52.566;13.346;2023-02-28T10:46:24;20.90;41.30
34776;DHT22;20989;52.566;13.346;2023-02-28T10:49:28;20.90;41.50
34776;DHT22;20989;52.566;13.346;2023-02-28T10:52:37;20.80;41.20
34776;DHT22;20989;52.566;13.346;2023-02-28T10:55:39;20.90;41.40
34776;DHT22;20989;52.566;13.346;2023-02-28T11:02:32;20.90;41.20
34776;DHT22;20989;52.566;13.346;2023-02-28T11:05:35;20.90;41.00
34776;DHT22;20989;52.566;13.346;2023-02-28T11:08:53;21.00;41.10
34776;DHT22;20989;52.566;13.346;2023-02-28T11:11:55;21.00;41.10
34776;DHT22;20989;52.566;13.346;2023-02-28T11:14:59;21.00;41.40
34776;DHT22;20989;52.566;13.346;2023-02-28T11:21:32;21.00;41.10
34776;DHT22;20989;52.566;13.346;2023-02-28T11:24:42;21.00;41.20
34776;DHT22;20989;52.566;13.346;2023-02-28T11:31:22;21.00;40.00
34776;DHT22;20989;52.566;13.346;2023-02-28T11:34:25;20.60;33.50
34776;DHT22;20989;52.566;13.346;2023-02-28T11:37:28;20.50;31.90
34776;DHT22;20989;52.566;13.346;2023-02-28T11:57:33;20.80;36.00
34776;DHT22;20989;52.566;13.346;2023-02-28T12:10:24;21.10;36.90
34776;DHT22;20989;52.566;13.346;2023-02-28T12:16:44;21.40;37.80
34776;DHT22;20989;52.566;13.346;2023-02-28T12:23:41;21.50;37.10
34776;DHT22;20989;52.566;13.346;2023-02-28T12:26:45;21.50;37.30
34776;DHT22;20989;52.566;13.346;2023-02-28T12:33:17;21.60;37.90
34776;DHT22;20989;52.566;13.346;2023-02-28T12:36:21;21.70;37.70
34776;DHT22;20989;52.566;13.346;2023-02-28T12:39:29;21.70;37.90
34776;DHT22;20989;52.566;13.346;2023-02-28T12:42:36;21.80;37.80
34776;DHT22;20989;52.566;13.346;2023-02-28T12:46:09;21.80;37.90
34776;DHT22;20989;52.566;13.346;2023-02-28T12:49:23;21.70;37.90
34776;DHT22;20989;52.566;13.346;2023-02-28T12:56:01;21.60;38.20
34776;DHT22;20989;52.566;13.346;2023-02-28T12:59:33;21.60;38.60
34776;DHT22;20989;52.566;13.346;2023-02-28T13:03:27;21.60;38.50
34776;DHT22;20989;52.566;13.346;2023-02-28T13:10:00;21.70;38.80
34776;DHT22;20989;52.566;13.346;2023-02-28T13:13:03;21.60;38.80
34776;DHT22;20989;52.566;13.346;2023-02-28T13:16:09;21.70;39.00
34776;DHT22;20989;52.566;13.346;2023-02-28T13:19:11;21.70;39.20
34776;DHT22;20989;52.566;13.346;2023-02-28T13:32:27;21.70;39.70
34776;DHT22;20989;52.566;13.346;2023-02-28T13:35:36;21.70;39.80
34776;DHT22;20989;52.566;13.346;2023-02-28T13:38:58;21.70;39.90
34776;DHT22;20989;52.566;13.346;2023-02-28T13:45:38;21.80;40.70
34776;DHT22;20989;52.566;13.346;2023-02-28T13:48:41;21.70;40.60
34776;DHT22;20989;52.566;13.346;2023-02-28T13:52:12;21.70;40.10
34776;DHT22;20989;52.566;13.346;2023-02-28T14:06:27;21.80;40.20
34776;DHT22;20989;52.566;13.346;2023-02-28T14:16:00;21.50;39.50
34776;DHT22;20989;52.566;13.346;2023-02-28T14:19:10;21.60;39.80
34776;DHT22;20989;52.566;13.346;2023-02-28T14:36:36;21.60;39.00
34776;DHT22;20989;52.566;13.346;2023-02-28T14:39:41;21.70;39.30
34776;DHT22;20989;52.566;13.346;2023-02-28T14:42:48;21.70;39.00
34776;DHT22;20989;52.566;13.346;2023-02-28T14:45:55;21.70;39.00
34776;DHT22;20989;52.566;13.346;2023-02-28T14:48:56;21.70;39.00
34776;DHT22;20989;52.566;13.346;2023-02-28T14:52:15;21.70;39.70
34776;DHT22;20989;52.566;13.346;2023-02-28T14:55:19;21.70;39.80
34776;DHT22;20989;52.566;13.346;2023-02-28T14:58:26;21.70;39.80
34776;DHT22;20989;52.566;13.346;2023-02-28T15:01:27;21.70;40.00
34776;DHT22;20989;52.566;13.346;2023-02-28T15:04:28;21.70;39.90
34776;DHT22;20989;52.566;13.346;2023-02-28T15:07:29;21.70;40.00
34776;DHT22;20989;52.566;13.346;2023-02-28T15:10:32;21.70;39.80
34776;DHT22;20989;52.566;13.346;2023-02-28T15:13:43;21.70;40.00
34776;DHT22;20989;52.566;13.346;2023-02-28T15:16:48;21.70;40.00
34776;DHT22;20989;52.566;13.346;2023-02-28T15:19:52;21.60;40.10
34776;DHT22;20989;52.566;13.346;2023-02-28T15:22:55;21.60;39.60
34776;DHT22;20989;52.566;13.346;2023-02-28T15:25:57;21.60;39.30
34776;DHT22;20989;52.566;13.346;2023-02-28T15:29:13;21.60;39.90
34776;DHT22;20989;52.566;13.346;2023-02-28T15:32:32;21.60;40.10
34776;DHT22;20989;52.566;13.346;2023-02-28T15:35:34;21.60;40.00
34776;DHT22;20989;52.566;13.346;2023-02-28T15:38:36;21.60;40.00
34776;DHT22;20989;52.566;13.346;2023-02-28T15:41:38;21.60;40.10
34776;DHT22;20989;52.566;13.346;2023-02-28T15:44:38;21.50;40.20
34776;DHT22;20989;52.566;13.346;2023-02-28T15:47:39;21.50;40.50
34776;DHT22;20989;52.566;13.346;2023-02-28T15:50:40;21.50;40.50
34776;DHT22;20989;52.566;13.346;2023-02-28T15:56:49;21.50;40.50
34776;DHT22;20989;52.566;13.346;2023-02-28T15:59:58;21.50;40.60
34776;DHT22;20989;52.566;13.346;2023-02-28T16:03:00;21.50;40.80
34776;DHT22;20989;52.566;13.346;2023-02-28T16:09:25;21.50;40.40
34776;DHT22;20989;52.566;13.346;2023-02-28T16:12:29;21.60;40.60
34776;DHT22;20989;52.566;13.346;2023-02-28T16:15:36;21.50;40.80
34776;DHT22;20989;52.566;13.346;2023-02-28T16:18:41;21.60;40.80
34776;DHT22;20989;52.566;13.346;2023-02-28T16:21:42;21.50;41.10
34776;DHT22;20989;52.566;13.346;2023-02-28T16:24:43;21.50;40.90
34776;DHT22;20989;52.566;13.346;2023-02-28T16:27:48;21.50;40.80
34776;DHT22;20989;52.566;13.346;2023-02-28T16:30:52;21.60;41.10
34776;DHT22;20989;52.566;13.346;2023-02-28T16:33:53;21.60;40.90
34776;DHT22;20989;52.566;13.346;2023-02-28T16:36:54;21.60;40.90
34776;DHT22;20989;52.566;13.346;2023-02-28T16:39:55;21.60;41.00
34776;DHT22;20989;52.566;13.346;2023-02-28T16:42:59;21.60;41.10
34776;DHT22;20989;52.566;13.346;2023-02-28T16:46:00;21.60;41.10
34776;DHT22;20989;52.566;13.346;2023-02-28T16:49:03;21.60;41.10
34776;DHT22;20989;52.566;13.346;2023-02-28T16:52:04;21.50;35.70
34776;DHT22;20989;52.566;13.346;2023-02-28T16:55:06;21.20;31.70
34776;DHT22;20989;52.566;13.346;2023-02-28T16:58:15;21.10;29.90
34776;DHT22;20989;52.566;13.346;2023-02-28T17:01:17;21.10;30.60
34776;DHT22;20989;52.566;13.346;2023-02-28T17:04:22;20.90;29.70
34776;DHT22;20989;52.566;13.346;2023-02-28T17:07:22;20.60;29.50
34776;DHT22;20989;52.566;13.346;2023-02-28T17:10:25;20.50;29.20
34776;DHT22;20989;52.566;13.346;2023-02-28T17:13:26;20.50;29.00
34776;DHT22;20989;52.566;13.346;2023-02-28T17:16:31;20.60;34.40
34776;DHT22;20989;52.566;13.346;2023-02-28T17:19:32;20.70;34.20
34776;DHT22;20989;52.566;13.346;2023-02-28T17:22:34;20.80;35.60
34776;DHT22;20989;52.566;13.346;2023-02-28T17:25:35;21.00;35.40
34776;DHT22;20989;52.566;13.346;2023-02-28T17:28:36;21.00;35.40
34776;DHT22;20989;52.566;13.346;2023-02-28T17:31:37;20.90;36.00
34776;DHT22;20989;52.566;13.346;2023-02-28T17:34:39;21.00;36.00
34776;DHT22;20989;52.566;13.346;2023-02-28T17:37:39;21.20;36.30
34776;DHT22;20989;52.566;13.346;2023-02-28T17:40:42;21.20;36.20
34776;DHT22;20989;52.566;13.346;2023-02-28T17:43:43;21.10;37.30
34776;DHT22;20989;52.566;13.346;2023-02-28T17:46:44;21.10;36.80
34776;DHT22;20989;52.566;13.346;2023-02-28T17:49:46;21.10;36.90
34776;DHT22;20989;52.566;13.346;2023-02-28T17:52:47;21.10;37.00
34776;DHT22;20989;52.566;13.346;2023-02-28T17:55:48;21.10;37.70
34776;DHT22;20989;52.566;13.346;2023-02-28T17:58:50;21.20;37.60
34776;DHT22;20989;52.566;13.346;2023-02-28T18:01:51;21.30;37.10
34776;DHT22;20989;52.566;13.346;2023-02-28T18:04:52;21.30;37.10
34776;DHT22;20989;52.566;13.346;2023-02-28T18:07:52;21.30;37.60
34776;DHT22;20989;52.566;13.346;2023-02-28T18:10:53;21.30;37.70
34776;DHT22;20989;52.566;13.346;2023-02-28T18:13:54;21.30;37.50
34776;DHT22;20989;52.566;13.346;2023-02-28T18:16:57;21.40;37.90
34776;DHT22;20989;52.566;13.346;2023-02-28T18:19:58;21.40;38.20
34776;DHT22;20989;52.566;13.346;2023-02-28T18:22:59;21.40;38.00
34776;DHT22;20989;52.566;13.346;2023-02-28T18:26:00;21.40;37.90
34776;DHT22;20989;52.566;13.346;2023-02-28T18:29:01;21.40;38.30
34776;DHT22;20989;52.566;13.346;2023-02-28T18:32:03;21.30;38.40
34776;DHT22;20989;52.566;13.346;2023-02-28T18:35:05;21.30;38.60
34776;DHT22;20989;52.566;13.346;2023-02-28T18:38:11;21.30;38.60
34776;DHT22;20989;52.566;13.346;2023-02-28T18:41:13;21.30;38.70
34776;DHT22;20989;52.566;13.346;2023-02-28T18:44:14;21.30;38.90
34776;DHT22;20989;52.566;13.346;2023-02-28T18:47:15;21.20;39.00
34776;DHT22;20989;52.566;13.346;2023-02-28T18:50:16;21.30;38.90
34776;DHT22;20989;52.566;13.346;2023-02-28T18:53:17;21.30;39.30
34776;DHT22;20989;52.566;13.346;2023-02-28T18:56:20;21.20;39.20
34776;DHT22;20989;52.566;13.346;2023-02-28T18:59:21;21.20;39.60
34776;DHT22;20989;52.566;13.346;2023-02-28T19:02:22;21.10;40.00
34776;DHT22;20989;52.566;13.346;2023-02-28T19:05:23;21.10;40.00
34776;DHT22;20989;52.566;13.346;2023-02-28T19:08:24;21.10;39.90
34776;DHT22;20989;52.566;13.346;2023-02-28T19:11:26;21.10;40.10
34776;DHT22;20989;52.566;13.346;2023-02-28T19:14:26;21.10;40.40
34776;DHT22;20989;52.566;13.346;2023-02-28T19:17:27;21.10;40.20
34776;DHT22;20989;52.566;13.346;2023-02-28T19:20:28;21.20;39.70
34776;DHT22;20989;52.566;13.346;2023-02-28T19:23:31;21.20;40.00
34776;DHT22;20989;52.566;13.346;2023-02-28T19:26:32;21.20;39.90
34776;DHT22;20989;52.566;13.346;2023-02-28T19:29:32;21.20;39.80
34776;DHT22;20989;52.566;13.346;2023-02-28T19:32:33;21.20;39.90
34776;DHT22;20989;52.566;13.346;2023-02-28T19:35:34;21.20;40.00
34776;DHT22;20989;52.566;13.346;2023-02-28T19:38:34;21.20;39.90
34776;DHT22;20989;52.566;13.346;2023-02-28T19:41:35;21.20;40.20
34776;DHT22;20989;52.566;13.346;2023-02-28T19:44:36;21.20;40.40
34776;DHT22;20989;52.566;13.346;2023-02-28T19:47:36;21.20;40.20
34776;DHT22;20989;52.566;13.346;2023-02-28T19:50:37;21.20;40.20
34776;DHT22;20989;52.566;13.346;2023-02-28T19:53:41;21.20;40.50
34776;DHT22;20989;52.566;13.346;2023-02-28T19:56:42;21.20;40.40
34776;DHT22;20989;52.566;13.346;2023-02-28T19:59:43;21.20;40.40
34776;DHT22;20989;52.566;13.346;2023-02-28T20:02:44;21.20;40.30
34776;DHT22;20989;52.566;13.346;2023-02-28T20:05:46;21.20;40.70
34776;DHT22;20989;52.566;13.346;2023-02-28T20:08:47;21.20;40.60
34776;DHT22;20989;52.566;13.346;2023-02-28T20:11:47;21.20;40.60
34776;DHT22;20989;52.566;13.346;2023-02-28T20:14:49;21.10;40.60
34776;DHT22;20989;52.566;13.346;2023-02-28T20:17:50;21.10;40.70
34776;DHT22;20989;52.566;13.346;2023-02-28T20:20:51;21.00;40.40
34776;DHT22;20989;52.566;13.346;2023-02-28T20:23:51;21.00;40.50
34776;DHT22;20989;52.566;13.346;2023-02-28T20:26:52;20.90;40.60
34776;DHT22;20989;52.566;13.346;2023-02-28T20:29:53;20.90;40.50
34776;DHT22;20989;52.566;13.346;2023-02-28T20:32:54;20.90;40.60
34776;DHT22;20989;52.566;13.346;2023-02-28T20:35:59;20.90;40.80
34776;DHT22;20989;52.566;13.346;2023-02-28T20:39:00;20.80;40.80
34776;DHT22;20989;52.566;13.346;2023-02-28T20:42:00;20.80;41.00
34776;DHT22;20989;52.566;13.346;2023-02-28T20:45:02;20.80;41.00
34776;DHT22;20989;52.566;13.346;2023-02-28T20:48:03;20.80;40.90
34776;DHT22;20989;52.566;13.346;2023-02-28T20:51:04;20.70;41.00
34776;DHT22;20989;52.566;13.346;2023-02-28T20:54:06;20.80;40.90
34776;DHT22;20989;52.566;13.346;2023-02-28T20:57:07;20.80;41.10
34776;DHT22;20989;52.566;13.346;2023-02-28T21:00:08;20.80;41.40
34776;DHT22;20989;52.566;13.346;2023-02-28T21:03:09;20.70;41.40
34776;DHT22;20989;52.566;13.346;2023-02-28T21:06:10;20.70;41.60
34776;DHT22;20989;52.566;13.346;2023-02-28T21:09:13;20.70;40.70
34776;DHT22;20989;52.566;13.346;2023-02-28T21:12:14;20.80;40.70
34776;DHT22;20989;52.566;13.346;2023-02-28T21:15:14;20.80;40.70
34776;DHT22;20989;52.566;13.346;2023-02-28T21:18:17;20.80;40.60
34776;DHT22;20989;52.566;13.346;2023-02-28T21:21:22;20.80;40.60
34776;DHT22;20989;52.566;13.346;2023-02-28T21:24:23;20.80;40.50
34776;DHT22;20989;52.566;13.346;2023-02-28T21:27:26;20.80;40.50
34776;DHT22;20989;52.566;13.346;2023-02-28T21:30:26;20.90;40.50
34776;DHT22;20989;52.566;13.346;2023-02-28T21:33:27;20.80;40.40
34776;DHT22;20989;52.566;13.346;2023-02-28T21:36:35;20.90;40.60
34776;DHT22;20989;52.566;13.346;2023-02-28T21:39:36;20.80;40.60